Time;durP1;ratioP1;P1;durP2;ratioP2;P2;SDS_P1;SDS_P2;PMS_P1;PMS_P2;Temp;Humidity;BMP_temperature;BMP_pressure;BME280_temperature;BME280_humidity;BME280_pressure;Samples;Min_cycle;Max_cycle;Signal;HPM_P1;HPM_P2
2022/12/14 00:04:28;;;;;;;26.97;13.87;;;-3.80;99.90;;;;;;5073843;28;20035;-82
2022/12/14 00:06:53;;;;;;;33.53;14.60;;;-3.60;99.90;;;;;;5039306;28;20044;-82
2022/12/14 00:09:19;;;;;;;29.20;12.63;;;-3.90;99.90;;;;;;5039004;28;20397;-82
2022/12/14 00:11:45;;;;;;;23.17;11.43;;;-4.00;99.90;;;;;;5072148;28;20123;-82
2022/12/14 00:14:11;;;;;;;25.03;10.13;;;-2.80;99.90;;;;;;5039016;28;20048;-82
2022/12/14 00:16:36;;;;;;;23.67;9.80;;;-4.20;99.90;;;;;;5055489;28;20078;-82
2022/12/14 00:19:04;;;;;;;23.57;10.70;;;-4.30;99.90;;;;;;5039204;28;20060;-82
2022/12/14 00:21:29;;;;;;;29.30;12.93;;;-4.30;99.90;;;;;;5038796;28;20123;-81
2022/12/14 00:23:57;;;;;;;29.60;13.97;;;-4.40;99.90;;;;;;5055630;28;20123;-81
2022/12/14 00:26:26;;;;;;;26.60;13.33;;;-4.50;99.90;;;;;;5071981;28;20040;-81
2022/12/14 00:28:54;;;;;;;28.57;14.63;;;-4.60;99.90;;;;;;5055375;28;20043;-81
2022/12/14 00:31:21;;;;;;;31.93;13.03;;;-4.80;99.90;;;;;;5038943;28;20048;-81
2022/12/14 00:33:47;;;;;;;29.00;12.27;;;-4.70;99.90;;;;;;5055156;28;20044;-81
2022/12/14 00:44:16;;;;;;;24.40;10.37;;;-4.70;99.90;;;;;;5055146;28;20056;-81
2022/12/14 00:46:42;;;;;;;22.13;10.30;;;-4.90;99.90;;;;;;5038449;28;20459;-81
2022/12/14 00:49:09;;;;;;;23.03;10.87;;;-4.90;99.90;;;;;;5054980;28;20040;-81
2022/12/14 00:51:37;;;;;;;29.87;13.13;;;-5.00;99.90;;;;;;5080273;28;20505;-81
2022/12/14 00:54:03;;;;;;;23.83;10.70;;;-5.10;99.90;;;;;;5075218;28;20035;-81
2022/12/14 00:56:29;;;;;;;21.53;10.37;;;-5.20;99.90;;;;;;5058150;28;20086;-81
2022/12/14 00:58:55;;;;;;;26.60;11.40;;;-5.60;99.90;;;;;;5041816;28;20044;-81
2022/12/14 01:01:20;;;;;;;18.67;9.60;;;-5.40;99.90;;;;;;5074798;28;20458;-81
2022/12/14 01:03:47;;;;;;;24.03;10.83;;;-5.50;99.90;;;;;;5075088;28;20100;-81
2022/12/14 01:06:18;;;;;;;20.93;9.47;;;-5.60;99.90;;;;;;5091905;28;20059;-81
2022/12/14 01:08:44;;;;;;;23.17;9.77;;;-5.50;99.90;;;;;;5074959;28;20040;-81
2022/12/14 01:11:11;;;;;;;21.10;9.17;;;-5.70;99.90;;;;;;5058562;28;20040;-82
2022/12/14 01:13:37;;;;;;;24.73;10.47;;;-5.70;99.90;;;;;;5058409;28;20485;-82
2022/12/14 01:30:47;;;;;;;26.57;11.73;;;-6.20;99.90;;;;;;5081747;28;20118;-81
2022/12/14 01:33:13;;;;;;;21.97;10.97;;;-6.20;99.90;;;;;;5074806;28;20490;-85
2022/12/14 01:35:38;;;;;;;20.60;9.53;;;-6.30;99.90;;;;;;5139602;22;20073;-82
2022/12/14 01:38:04;;;;;;;25.97;10.67;;;-6.40;99.90;;;;;;5119306;27;20433;-83
2022/12/14 01:40:30;;;;;;;18.73;8.57;;;-6.40;99.90;;;;;;5138404;27;20042;-83
2022/12/14 01:50:10;;;;;;;24.57;11.27;;;-6.50;99.90;;;;;;5155913;27;20050;-83
2022/12/14 01:52:42;;;;;;;22.87;10.60;;;-6.50;99.90;;;;;;5139627;27;20035;-83
2022/12/14 01:55:11;;;;;;;23.47;10.60;;;-6.60;99.90;;;;;;5136351;27;20038;-83
2022/12/14 01:58:09;;;;;;;22.50;10.63;;;-6.70;99.90;;;;;;5119081;27;20046;-83
2022/12/14 02:00:36;;;;;;;21.40;10.63;;;-6.70;99.90;;;;;;5128455;27;20039;-82
2022/12/14 02:03:18;;;;;;;28.00;12.77;;;-6.70;99.90;;;;;;5136139;27;20039;-82
2022/12/14 02:05:50;;;;;;;22.43;11.10;;;-6.60;99.90;;;;;;5118908;27;20508;-82
2022/12/14 02:08:19;;;;;;;24.97;10.83;;;-6.60;99.90;;;;;;5136048;27;20377;-82
2022/12/14 02:10:46;;;;;;;23.70;9.77;;;-6.70;99.90;;;;;;5135908;27;20043;-82
2022/12/14 02:13:17;;;;;;;28.23;12.60;;;-6.70;99.90;;;;;;5119178;27;20439;-82
2022/12/14 02:15:43;;;;;;;23.73;11.53;;;-6.70;99.90;;;;;;5135963;27;20134;-83
2022/12/14 02:18:16;;;;;;;32.80;13.40;;;-6.70;99.90;;;;;;5135916;27;20122;-83
2022/12/14 02:20:56;;;;;;;26.97;12.30;;;-6.60;99.90;;;;;;5135760;27;20039;-83
2022/12/14 02:23:48;;;;;;;30.27;11.83;;;-6.50;99.90;;;;;;5118820;27;20351;-83
2022/12/14 02:26:40;;;;;;;29.97;13.70;;;-6.40;99.90;;;;;;5118527;27;20481;-83
2022/12/14 02:29:11;;;;;;;30.43;13.40;;;-6.30;99.90;;;;;;5136142;27;20030;-83
2022/12/14 02:32:15;;;;;;;35.93;14.63;;;-6.30;99.90;;;;;;5118598;27;20196;-83
2022/12/14 02:34:44;;;;;;;30.57;13.07;;;-6.10;99.90;;;;;;5135376;27;20424;-82
2022/12/14 02:37:18;;;;;;;32.13;13.47;;;-6.10;99.90;;;;;;5135436;27;20492;-82
2022/12/14 02:39:53;;;;;;;21.47;10.60;;;-8.40;99.90;;;;;;5135653;27;20050;-82
2022/12/14 02:42:34;;;;;;;26.90;11.93;;;-6.20;99.90;;;;;;5135451;27;20046;-82
2022/12/14 02:45:30;;;;;;;26.80;12.30;;;-6.20;99.90;;;;;;5135269;27;20039;-82
2022/12/14 02:48:19;;;;;;;28.37;11.87;;;-6.20;99.90;;;;;;5118323;27;20433;-83
2022/12/14 02:51:12;;;;;;;29.90;12.53;;;-6.10;99.90;;;;;;5118262;27;20118;-84
2022/12/14 02:53:54;;;;;;;28.60;12.40;;;-5.00;99.90;;;;;;5124564;27;20038;-84
2022/12/14 02:56:28;;;;;;;28.93;12.80;;;-6.10;99.90;;;;;;5145538;27;20068;-84
2022/12/14 02:58:55;;;;;;;24.53;12.50;;;-6.10;99.90;;;;;;5156877;27;20441;-84
2022/12/14 03:01:26;;;;;;;25.40;11.73;;;-6.10;99.90;;;;;;5136698;27;20035;-82
2022/12/14 03:04:19;;;;;;;23.87;12.03;;;-6.10;99.90;;;;;;5135974;27;20092;-82
2022/12/14 03:07:33;;;;;;;28.88;12.05;;;-6.40;99.90;;;;;;5125333;27;20041;-83
2022/12/14 03:10:24;;;;;;;26.90;11.17;;;-4.00;99.90;;;;;;5119609;27;20179;-83
2022/12/14 03:13:08;;;;;;;24.83;10.60;;;-4.70;99.90;;;;;;5119424;27;20492;-83
2022/12/14 03:15:39;;;;;;;19.60;10.17;;;-6.40;99.90;;;;;;5119960;27;20480;-83
2022/12/14 03:18:28;;;;;;;21.73;9.13;;;-6.50;99.90;;;;;;5118457;27;20042;-83
2022/12/14 03:20:59;;;;;;;14.57;7.20;;;-6.60;99.90;;;;;;5150341;27;20404;-83
2022/12/14 03:23:34;;;;;;;18.60;8.10;;;-6.70;99.90;;;;;;5135489;27;20480;-83
2022/12/14 03:26:16;;;;;;;14.80;7.13;;;-6.80;99.90;;;;;;5119573;27;20027;-82
2022/12/14 03:29:08;;;;;;;18.27;8.50;;;-7.00;99.90;;;;;;5119808;27;20488;-83
2022/12/14 03:31:46;;;;;;;19.27;8.23;;;-8.20;99.90;;;;;;5135740;27;20039;-83
2022/12/14 03:34:18;;;;;;;18.20;7.73;;;-7.00;99.90;;;;;;5117940;27;20135;-83
2022/12/14 03:37:09;;;;;;;17.17;8.07;;;-7.00;99.90;;;;;;5128372;27;20054;-83
2022/12/14 03:39:41;;;;;;;21.37;8.73;;;-7.10;99.90;;;;;;5138397;27;20084;-83
2022/12/14 03:42:13;;;;;;;19.33;8.50;;;-7.10;99.90;;;;;;5135566;27;20076;-84
2022/12/14 03:44:48;;;;;;;19.30;8.43;;;-7.20;99.90;;;;;;5118596;27;20080;-84
2022/12/14 03:47:30;;;;;;;19.50;8.60;;;-7.20;99.90;;;;;;5136254;27;20041;-84
2022/12/14 03:50:08;;;;;;;21.73;9.40;;;-7.30;99.90;;;;;;5152528;27;20512;-84
2022/12/14 03:52:39;;;;;;;18.37;8.33;;;-7.30;99.90;;;;;;5151908;27;20038;-84
2022/12/14 03:55:09;;;;;;;20.90;9.27;;;-7.30;99.90;;;;;;5155892;27;20054;-83
2022/12/14 03:57:42;;;;;;;19.43;8.93;;;-7.40;99.90;;;;;;5154198;27;20103;-82
2022/12/14 04:00:14;;;;;;;22.10;8.43;;;-7.40;99.90;;;;;;5138226;27;20042;-82
2022/12/14 04:02:55;;;;;;;20.57;8.07;;;-4.70;99.90;;;;;;5137860;27;20043;-82
2022/12/14 04:05:38;;;;;;;21.87;8.97;;;-7.60;99.90;;;;;;5138147;27;20034;-82
2022/12/14 04:08:08;;;;;;;22.73;8.37;;;-7.60;99.90;;;;;;5153641;27;20031;-82
2022/12/14 04:19:22;;;;;;;18.87;8.47;;;-7.80;99.90;;;;;;5153346;27;20049;-83
2022/12/14 04:22:10;;;;;;;21.53;9.07;;;-7.80;99.90;;;;;;5155015;27;20049;-83
2022/12/14 04:27:49;;;;;;;17.07;7.30;;;-6.40;99.90;;;;;;5155719;27;20384;-84
2022/12/14 04:30:15;;;;;;;24.10;10.73;;;-8.00;99.90;;;;;;5135619;27;20102;-83
2022/12/14 04:32:53;;;;;;;21.80;9.20;;;-6.40;99.90;;;;;;5154721;27;20038;-82
2022/12/14 04:35:32;;;;;;;22.27;9.50;;;-6.60;99.90;;;;;;5154634;27;20401;-82
2022/12/14 04:38:03;;;;;;;24.67;11.77;;;-8.00;99.90;;;;;;5137138;27;20133;-82
2022/12/14 04:40:50;;;;;;;25.47;10.73;;;-8.00;99.90;;;;;;5147984;27;20039;-82
2022/12/14 04:43:20;;;;;;;22.67;9.00;;;-7.90;99.90;;;;;;5154349;27;20046;-82
2022/12/14 04:45:49;;;;;;;22.70;9.53;;;-9.70;99.90;;;;;;5145819;27;20050;-82
2022/12/14 04:48:28;;;;;;;18.03;9.07;;;-7.10;99.90;;;;;;5117349;27;20038;-82
2022/12/14 04:51:08;;;;;;;20.13;9.73;;;-6.50;99.90;;;;;;5137779;27;20103;-82
2022/12/14 04:53:38;;;;;;;17.90;7.70;;;-8.10;99.90;;;;;;5134051;27;20389;-82
2022/12/14 04:56:08;;;;;;;19.13;9.23;;;-8.00;99.90;;;;;;5116407;27;20121;-82
2022/12/14 04:58:34;;;;;;;17.17;8.33;;;-8.10;99.90;;;;;;5116672;27;20472;-81
2022/12/14 05:01:23;;;;;;;17.40;7.10;;;-8.20;99.90;;;;;;5134539;27;20035;-81
2022/12/14 05:03:59;;;;;;;17.27;8.77;;;-8.20;99.90;;;;;;5125401;27;20055;-82
2022/12/14 05:06:33;;;;;;;19.97;7.40;;;-8.30;99.90;;;;;;5133877;27;20392;-82
2022/12/14 05:09:08;;;;;;;23.17;9.13;;;-8.30;99.90;;;;;;5116474;27;20039;-82
2022/12/14 05:12:02;;;;;;;21.90;9.47;;;-8.40;99.90;;;;;;5143274;27;20038;-83
2022/12/14 05:14:39;;;;;;;19.50;9.07;;;-8.30;99.90;;;;;;5153662;27;20050;-84
2022/12/14 05:17:05;;;;;;;21.30;8.23;;;-8.30;99.90;;;;;;5154282;27;20122;-84
2022/12/14 05:19:31;;;;;;;20.60;8.70;;;-7.00;99.90;;;;;;5154084;27;20070;-84
2022/12/14 05:22:03;;;;;;;26.17;10.17;;;-8.50;99.90;;;;;;5127406;27;20156;-82
2022/12/14 05:24:29;;;;;;;17.83;9.73;;;-8.40;99.90;;;;;;5116233;28;20095;-82
2022/12/14 05:26:54;;;;;;;20.83;9.23;;;-8.40;99.90;;;;;;5116361;27;20039;-84
2022/12/14 05:29:20;;;;;;;17.60;8.40;;;-8.30;99.90;;;;;;5116178;27;20126;-84
2022/12/14 05:31:46;;;;;;;20.50;8.93;;;-8.30;99.90;;;;;;5117350;27;20103;-84
2022/12/14 05:34:11;;;;;;;17.20;8.40;;;-8.40;99.90;;;;;;5132819;27;20482;-84
2022/12/14 05:36:37;;;;;;;15.50;7.03;;;-8.40;99.90;;;;;;5116183;28;20404;-83
2022/12/14 05:39:03;;;;;;;17.43;7.87;;;-8.40;99.90;;;;;;5116310;28;20046;-82
2022/12/14 05:41:28;;;;;;;19.10;9.10;;;-8.50;99.90;;;;;;5133177;28;20183;-82
2022/12/14 05:43:54;;;;;;;22.53;9.03;;;-8.40;99.90;;;;;;5134293;27;20494;-82
2022/12/14 05:46:20;;;;;;;23.03;9.60;;;-8.40;99.90;;;;;;5112460;27;20492;-82
2022/12/14 05:48:45;;;;;;;20.63;9.33;;;-8.50;99.90;;;;;;5136612;27;20113;-82
2022/12/14 05:51:12;;;;;;;23.07;9.77;;;-8.40;99.90;;;;;;5131379;28;20035;-82
2022/12/14 05:53:38;;;;;;;18.43;9.17;;;-8.40;99.90;;;;;;5141907;27;20046;-82
2022/12/14 05:56:06;;;;;;;21.73;9.37;;;-8.50;99.90;;;;;;5153644;27;20042;-82
2022/12/14 05:58:33;;;;;;;19.13;9.43;;;-8.50;99.90;;;;;;5136923;27;20039;-82
2022/12/14 06:01:01;;;;;;;21.60;8.33;;;-8.40;99.90;;;;;;5151731;27;20102;-82
2022/12/14 06:03:30;;;;;;;19.13;8.10;;;-8.60;99.90;;;;;;5136294;27;20042;-82
2022/12/14 06:06:10;;;;;;;18.17;8.53;;;-8.60;99.90;;;;;;5136568;27;20034;-82
2022/12/14 06:08:42;;;;;;;22.93;10.07;;;-8.50;99.90;;;;;;5155057;27;20472;-82
2022/12/14 06:11:14;;;;;;;19.27;8.77;;;-8.50;99.90;;;;;;5134559;27;20484;-83
2022/12/14 06:13:40;;;;;;;16.53;8.60;;;-8.50;99.90;;;;;;5135726;27;20130;-82
2022/12/14 06:16:21;;;;;;;18.13;7.73;;;-8.60;99.90;;;;;;5153799;27;20396;-82
2022/12/14 06:18:49;;;;;;;16.57;7.70;;;-7.20;99.90;;;;;;5153937;27;20045;-82
2022/12/14 06:21:17;;;;;;;18.20;7.47;;;-8.60;99.90;;;;;;5131092;28;20497;-82
2022/12/14 06:23:43;;;;;;;15.90;6.57;;;-8.70;99.90;;;;;;5115602;28;20047;-82
2022/12/14 06:26:09;;;;;;;17.17;7.27;;;-6.80;99.90;;;;;;5152289;27;20358;-82
2022/12/14 06:28:36;;;;;;;17.83;6.83;;;-8.50;99.90;;;;;;5136740;27;20035;-81
2022/12/14 06:31:03;;;;;;;20.00;9.37;;;-8.80;99.90;;;;;;5153979;27;20035;-81
2022/12/14 06:33:31;;;;;;;19.20;6.93;;;-7.60;99.90;;;;;;5120570;27;20120;-81
2022/12/14 06:35:57;;;;;;;16.87;7.70;;;-8.70;99.90;;;;;;5136153;27;20043;-81
2022/12/14 06:38:23;;;;;;;16.90;7.70;;;-8.80;99.90;;;;;;5119808;27;20490;-81
2022/12/14 06:40:49;;;;;;;20.07;9.27;;;-9.00;99.90;;;;;;5119331;27;20396;-81
2022/12/14 06:43:15;;;;;;;18.00;8.30;;;-8.80;99.90;;;;;;5137903;27;20098;-81
2022/12/14 06:45:41;;;;;;;19.20;8.77;;;-8.80;99.90;;;;;;5126796;27;20080;-81
2022/12/14 06:48:07;;;;;;;18.70;8.40;;;-8.70;99.90;;;;;;5122469;27;20042;-81
2022/12/14 06:50:32;;;;;;;21.17;8.33;;;-8.80;99.90;;;;;;5157136;27;20038;-81
2022/12/14 06:52:58;;;;;;;16.40;7.53;;;-6.90;99.90;;;;;;5120273;27;20050;-81
2022/12/14 06:55:25;;;;;;;19.53;7.37;;;-8.80;99.90;;;;;;5135430;27;20053;-81
2022/12/14 06:57:52;;;;;;;23.27;9.73;;;-5.60;99.90;;;;;;5156678;27;20043;-83
2022/12/14 07:00:22;;;;;;;19.70;8.57;;;-8.70;99.90;;;;;;5139677;27;20480;-83
2022/12/14 07:02:49;;;;;;;16.77;8.00;;;-8.70;99.90;;;;;;5139489;27;20053;-82
2022/12/14 07:05:15;;;;;;;21.57;8.77;;;-8.80;99.90;;;;;;5120604;27;20215;-82
2022/12/14 07:07:42;;;;;;;16.33;8.13;;;;;;;;;;5139207;27;20070;-82
2022/12/14 07:10:08;;;;;;;16.57;7.23;;;-8.90;99.90;;;;;;5139217;27;20043;-82
2022/12/14 07:12:35;;;;;;;17.67;9.10;;;;;;;;;;5156416;27;20043;-82
2022/12/14 07:15:01;;;;;;;15.40;8.43;;;-8.90;99.90;;;;;;5154719;27;20099;-82
2022/12/14 07:17:27;;;;;;;22.63;9.87;;;-8.90;99.90;;;;;;5132244;27;20767;-81
2022/12/14 07:19:52;;;;;;;15.33;7.37;;;-8.90;99.90;;;;;;5135737;27;20106;-82
2022/12/14 07:22:18;;;;;;;17.60;8.30;;;-6.20;99.90;;;;;;5135586;27;20506;-82
2022/12/14 07:24:45;;;;;;;25.67;11.10;;;;;;;;;;5136872;27;20030;-82
2022/12/14 07:27:17;;;;;;;22.23;11.20;;;-7.40;99.90;;;;;;5118598;27;20046;-82
2022/12/14 07:29:48;;;;;;;27.37;10.30;;;-8.90;99.90;;;;;;5118642;27;20072;-81
2022/12/14 07:32:14;;;;;;;26.30;11.43;;;;;;;;;;5118537;27;20031;-82
2022/12/14 07:34:40;;;;;;;18.30;8.63;;;-8.40;99.90;;;;;;5118326;27;20039;-82
2022/12/14 07:37:06;;;;;;;20.80;9.33;;;;;;;;;;5118572;27;20053;-82
2022/12/14 07:39:32;;;;;;;21.37;9.47;;;-8.80;99.90;;;;;;5118098;27;20039;-82
2022/12/14 07:41:57;;;;;;;18.83;8.17;;;-9.00;99.90;;;;;;5118109;27;20103;-82
2022/12/14 07:44:23;;;;;;;21.03;8.73;;;-9.00;99.90;;;;;;5117990;27;20043;-82
2022/12/14 07:46:49;;;;;;;18.70;8.57;;;-8.90;99.90;;;;;;5136308;27;20081;-82
2022/12/14 07:49:14;;;;;;;18.30;8.27;;;-8.90;99.90;;;;;;5135004;27;20543;-82
2022/12/14 07:51:41;;;;;;;19.87;8.57;;;-7.60;99.90;;;;;;5109963;27;20046;-82
2022/12/14 07:54:07;;;;;;;16.80;7.50;;;-8.90;99.90;;;;;;5138651;27;20456;-82
2022/12/14 07:56:36;;;;;;;21.07;10.70;;;-8.90;99.90;;;;;;5136823;27;20058;-84
2022/12/14 07:59:03;;;;;;;27.60;11.07;;;-8.90;99.90;;;;;;5138597;27;20395;-81
2022/12/14 08:01:31;;;;;;;25.20;10.13;;;-8.80;99.90;;;;;;5155938;27;20041;-81
2022/12/14 08:03:57;;;;;;;21.33;8.87;;;;;;;;;;5135647;22;20055;-83
2022/12/14 08:06:27;;;;;;;18.77;8.90;;;-10.60;99.90;;;;;;5068828;28;20142;-83
2022/12/14 08:08:54;;;;;;;26.67;11.70;;;-8.70;99.90;;;;;;5075035;28;20044;-82
2022/12/14 08:11:23;;;;;;;28.57;11.97;;;-8.50;99.90;;;;;;5074457;28;20043;-82
2022/12/14 08:13:58;;;;;;;30.97;12.90;;;-8.40;99.90;;;;;;5073139;28;20180;-83
2022/12/14 08:16:25;;;;;;;27.47;11.67;;;-7.90;99.90;;;;;;5056277;28;20118;-82
2022/12/14 08:18:52;;;;;;;28.47;13.10;;;-6.40;99.90;;;;;;5065245;28;20508;-83
2022/12/14 08:21:21;;;;;;;32.13;13.63;;;-6.50;99.90;;;;;;5074087;28;20051;-83
2022/12/14 08:23:51;;;;;;;29.97;14.03;;;-5.80;99.90;;;;;;5075767;28;20043;-83
2022/12/14 08:26:17;;;;;;;30.30;12.93;;;-5.40;99.90;;;;;;5039680;28;20041;-82
2022/12/14 08:28:43;;;;;;;26.23;13.53;;;-5.10;99.90;;;;;;5039666;28;20036;-82
2022/12/14 08:31:14;;;;;;;28.73;12.40;;;-5.10;99.90;;;;;;5039745;28;20455;-82
2022/12/14 08:33:41;;;;;;;24.73;11.27;;;-5.20;99.90;;;;;;5058850;28;20126;-82
2022/12/14 08:36:09;;;;;;;26.10;11.70;;;-5.40;99.90;;;;;;5059327;28;20043;-82
2022/12/14 08:38:36;;;;;;;22.00;10.40;;;-5.70;99.90;;;;;;5076205;28;20093;-82
2022/12/14 08:41:06;;;;;;;25.40;11.83;;;-6.00;99.90;;;;;;5048353;28;20036;-83
2022/12/14 08:43:33;;;;;;;28.57;11.80;;;-6.00;99.90;;;;;;5074222;28;20036;-82
2022/12/14 08:45:58;;;;;;;31.93;12.50;;;-6.00;99.90;;;;;;5047756;28;20470;-83
2022/12/14 08:48:24;;;;;;;22.90;11.47;;;-5.60;99.90;;;;;;5059197;28;20097;-83
2022/12/14 08:50:53;;;;;;;26.87;11.73;;;-4.90;99.90;;;;;;5064967;28;20444;-83
2022/12/14 08:53:25;;;;;;;33.60;13.37;;;-2.30;99.90;;;;;;5051572;28;20417;-83
2022/12/14 08:55:54;;;;;;;30.60;13.33;;;-3.10;99.90;;;;;;5059667;28;20078;-83
2022/12/14 08:58:22;;;;;;;23.43;11.63;;;-1.80;99.90;;;;;;5058502;28;20062;-83
2022/12/14 09:01:05;;;;;;;29.63;12.20;;;-0.80;99.90;;;;;;5057115;28;20043;-83
2022/12/14 09:03:31;;;;;;;25.57;12.20;;;0.40;99.90;;;;;;5067892;28;20738;-83
2022/12/14 09:06:05;;;;;;;23.77;12.83;;;2.50;99.90;;;;;;5055558;28;20537;-83
2022/12/14 09:08:31;;;;;;;24.83;10.70;;;-1.00;99.90;;;;;;5061580;28;20036;-83
2022/12/14 09:10:58;;;;;;;20.77;9.67;;;1.30;99.90;;;;;;5075707;28;20079;-83
2022/12/14 09:13:24;;;;;;;22.77;10.67;;;1.40;99.90;;;;;;5056114;28;20047;-84
2022/12/14 09:16:05;;;;;;;23.45;11.15;;;1.40;99.90;;;;;;5056132;28;20054;-85
2022/12/14 09:18:31;;;;;;;23.77;11.77;;;1.40;99.90;;;;;;5055960;28;20114;-85
2022/12/14 09:20:57;;;;;;;21.95;11.23;;;1.60;99.90;;;;;;5026536;28;20432;-85
2022/12/14 09:23:24;;;;;;;21.15;12.02;;;3.20;99.90;;;;;;5039086;28;20123;-85
2022/12/14 09:26:10;;;;;;;21.90;10.48;;;1.90;99.90;;;;;;5055327;28;20043;-85
2022/12/14 09:28:37;;;;;;;23.60;11.02;;;3.20;99.90;;;;;;5067728;28;20101;-85
2022/12/14 09:31:06;;;;;;;22.73;11.07;;;2.60;99.90;;;;;;5035798;28;20130;-83
2022/12/14 09:33:33;;;;;;;23.20;9.95;;;2.50;99.90;;;;;;5038715;28;20436;-83
2022/12/14 09:36:03;;;;;;;22.08;10.45;;;2.30;99.90;;;;;;5049172;28;20040;-83
2022/12/14 09:38:31;;;;;;;24.83;11.18;;;2.30;99.90;;;;;;5075121;28;20050;-83
2022/12/14 09:41:07;;;;;;;21.55;10.40;;;2.40;99.90;;;;;;5058995;28;20371;-83
2022/12/14 09:43:42;;;;;;;21.88;10.00;;;2.60;99.90;;;;;;5058795;28;20074;-83
2022/12/14 09:46:32;;;;;;;20.00;8.90;;;3.00;99.90;;;;;;5058655;28;20679;-83
2022/12/14 09:49:00;;;;;;;18.80;9.50;;;3.20;99.90;;;;;;5051847;28;20120;-83
2022/12/14 09:51:31;;;;;;;21.40;9.98;;;5.60;99.90;;;;;;5049288;28;20048;-83
2022/12/14 09:54:04;;;;;;;23.65;9.75;;;4.20;99.90;;;;;;5045713;28;20040;-83
2022/12/14 09:56:32;;;;;;;22.17;9.27;;;3.60;99.90;;;;;;5075838;28;20044;-83
2022/12/14 09:58:59;;;;;;;20.80;9.05;;;4.60;99.90;;;;;;5057919;28;20052;-83
2022/12/14 10:01:36;;;;;;;17.13;8.18;;;4.10;99.90;;;;;;5042535;28;20403;-84
2022/12/14 10:04:02;;;;;;;15.48;7.75;;;5.30;99.90;;;;;;5042490;28;20080;-85
2022/12/14 10:07:03;;;;;;;15.15;7.75;;;3.40;99.90;;;;;;5042629;28;20084;-85
2022/12/14 10:09:42;;;;;;;17.38;7.43;;;3.20;99.90;;;;;;5060714;28;20389;-85
2022/12/14 10:12:14;;;;;;;16.08;6.90;;;3.20;99.90;;;;;;5062125;28;20036;-85
2022/12/14 10:14:42;;;;;;;21.50;8.32;;;3.70;99.90;;;;;;5075642;28;20040;-85
2022/12/14 10:17:25;;;;;;;16.90;7.18;;;4.40;99.90;;;;;;5064116;28;20046;-85
2022/12/14 10:19:54;;;;;;;16.52;7.13;;;4.60;99.90;;;;;;5079034;28;20082;-85
2022/12/14 10:22:24;;;;;;;16.15;8.00;;;4.80;99.90;;;;;;5077516;28;20070;-85
2022/12/14 10:25:04;;;;;;;16.95;7.78;;;4.60;99.90;;;;;;5062087;28;20127;-85
2022/12/14 10:27:32;;;;;;;20.00;7.78;;;4.40;99.90;;;;;;5078070;28;20490;-85
2022/12/14 10:30:05;;;;;;;14.18;7.07;;;3.40;99.90;;;;;;5062139;28;20076;-85
2022/12/14 10:32:37;;;;;;;15.38;6.82;;;3.80;99.90;;;;;;5061968;28;20040;-87
2022/12/14 10:35:34;;;;;;;15.73;7.50;;;4.20;99.90;;;;;;5061179;28;20040;-87
2022/12/14 10:38:19;;;;;;;16.70;6.82;;;4.40;99.90;;;;;;5078575;28;20043;-85
2022/12/14 10:40:51;;;;;;;15.15;6.50;;;4.70;99.90;;;;;;5073636;28;20120;-84
2022/12/14 10:43:27;;;;;;;14.95;6.65;;;5.10;99.90;;;;;;5058399;28;20045;-84
2022/12/14 10:46:09;;;;;;;16.60;7.22;;;5.70;98.90;;;;;;5058707;28;20044;-84
2022/12/14 10:48:36;;;;;;;16.83;7.10;;;6.00;97.70;;;;;;5058331;28;20071;-84
2022/12/14 10:51:29;;;;;;;13.73;6.45;;;6.00;95.40;;;;;;5045485;28;20039;-84
2022/12/14 10:54:10;;;;;;;12.75;6.03;;;5.80;96.30;;;;;;5078841;28;20048;-87
2022/12/14 10:56:40;;;;;;;12.55;5.90;;;5.60;96.80;;;;;;5078452;28;20044;-87
2022/12/14 10:59:22;;;;;;;11.48;6.10;;;5.40;97.40;;;;;;5058941;28;20490;-87
2022/12/14 11:02:12;;;;;;;12.25;5.72;;;5.90;97.80;;;;;;5041415;28;20046;-87
2022/12/14 11:04:51;;;;;;;12.95;5.60;;;6.70;97.00;;;;;;5041295;28;20056;-87
2022/12/14 11:07:22;;;;;;;13.40;6.03;;;7.70;94.90;;;;;;5045184;28;20122;-87
2022/12/14 11:09:48;;;;;;;10.35;4.60;;;8.10;91.20;;;;;;5059518;28;20043;-87
2022/12/14 11:12:27;;;;;;;12.32;5.38;;;8.50;91.60;;;;;;5060041;28;20048;-87
2022/12/14 11:15:00;;;;;;;15.02;5.63;;;9.00;92.30;;;;;;5078163;28;20121;-87
2022/12/14 11:17:43;;;;;;;14.27;7.43;;;9.40;86.30;;;;;;5054781;28;20451;-87
2022/12/14 11:20:08;;;;;;;13.07;5.75;;;9.80;88.70;;;;;;5041374;28;20098;-87
2022/12/14 11:22:54;;;;;;;11.48;5.50;;;9.70;86.50;;;;;;5057716;28;20461;-86
2022/12/14 11:25:28;;;;;;;16.52;8.02;;;8.80;86.20;;;;;;5058108;28;20122;-87
2022/12/14 11:27:54;;;;;;;14.35;6.20;;;8.60;88.60;;;;;;5077723;28;20413;-84
2022/12/14 11:30:19;;;;;;;10.35;5.32;;;8.30;90.50;;;;;;5059263;28;20047;-83
2022/12/14 11:32:49;;;;;;;12.90;6.15;;;8.40;90.00;;;;;;5057707;28;20048;-83
2022/12/14 11:35:19;;;;;;;12.10;6.13;;;8.60;90.70;;;;;;5046768;28;20044;-83
2022/12/14 11:37:48;;;;;;;14.32;6.22;;;8.20;86.70;;;;;;5058796;28;20036;-83
2022/12/14 11:40:24;;;;;;;13.73;5.75;;;8.00;90.80;;;;;;5058200;28;20052;-83
2022/12/14 11:42:53;;;;;;;13.75;6.05;;;7.30;88.90;;;;;;5060281;28;20115;-84
2022/12/14 11:45:25;;;;;;;12.32;5.70;;;6.80;86.20;;;;;;5051629;28;20040;-84
2022/12/14 11:48:13;;;;;;;13.40;5.93;;;6.40;91.30;;;;;;5070263;28;20119;-84
2022/12/14 11:50:40;;;;;;;11.77;5.35;;;6.40;91.30;;;;;;5059441;28;20517;-84
2022/12/14 11:53:09;;;;;;;12.95;5.95;;;6.70;91.70;;;;;;5058388;28;20040;-84
2022/12/14 11:55:39;;;;;;;10.30;5.20;;;6.80;91.50;;;;;;5068984;28;20043;-84
2022/12/14 11:58:34;;;;;;;12.52;5.95;;;8.10;91.10;;;;;;5060177;28;20036;-82
2022/12/14 12:01:13;;;;;;;11.80;5.05;;;7.50;91.80;;;;;;5044131;28;20056;-84
2022/12/14 12:03:48;;;;;;;11.88;5.20;;;7.60;92.30;;;;;;5040503;28;20425;-84
2022/12/14 12:06:21;;;;;;;10.27;5.05;;;7.60;90.20;;;;;;5045239;28;20528;-84
2022/12/14 12:08:59;;;;;;;12.23;5.03;;;7.30;90.60;;;;;;5060561;28;20047;-84
2022/12/14 12:11:29;;;;;;;10.98;5.07;;;7.20;90.20;;;;;;5077132;28;20044;-84
2022/12/14 12:14:02;;;;;;;10.45;4.80;;;7.00;90.10;;;;;;5060140;28;20087;-88
2022/12/14 12:16:29;;;;;;;12.43;5.65;;;7.50;92.00;;;;;;5073033;28;20112;-85
2022/12/14 12:19:09;;;;;;;12.30;5.55;;;7.50;91.90;;;;;;5040438;28;20047;-85
2022/12/14 12:21:38;;;;;;;12.32;6.20;;;6.10;91.20;;;;;;5072748;28;20478;-85
2022/12/14 12:24:19;;;;;;;13.00;5.65;;;5.50;91.50;;;;;;5061682;28;20040;-85
2022/12/14 12:26:58;;;;;;;12.52;5.47;;;5.00;94.80;;;;;;5072001;28;20044;-85
2022/12/14 12:29:27;;;;;;;12.50;6.72;;;4.80;96.60;;;;;;5066087;28;20044;-85
2022/12/14 12:32:02;;;;;;;15.65;6.93;;;5.30;99.10;;;;;;5074805;28;20144;-85
2022/12/14 12:34:49;;;;;;;13.90;6.53;;;5.30;96.80;;;;;;5076097;28;20100;-88
2022/12/14 12:37:20;;;;;;;16.88;7.32;;;5.60;98.10;;;;;;5066818;28;20082;-88
2022/12/14 12:39:55;;;;;;;15.50;7.07;;;5.80;97.40;;;;;;5039827;28;20131;-88
2022/12/14 12:42:42;;;;;;;11.43;5.57;;;6.00;97.60;;;;;;5039907;28;20079;-88
2022/12/14 12:45:43;;;;;;;13.90;6.05;;;6.00;97.70;;;;;;5045817;28;20504;-88
2022/12/14 12:48:15;;;;;;;11.68;5.85;;;6.30;95.90;;;;;;5070042;28;20044;-88
2022/12/14 12:50:52;;;;;;;11.25;5.10;;;6.40;94.90;;;;;;5054191;28;20101;-85
2022/12/14 12:53:50;;;;;;;12.60;6.00;;;6.40;95.40;;;;;;5045192;28;20045;-85
2022/12/14 12:56:20;;;;;;;11.18;5.00;;;6.20;94.00;;;;;;5059298;28;20044;-85
2022/12/14 12:58:51;;;;;;;13.00;6.50;;;6.10;95.10;;;;;;5074688;28;20036;-85
2022/12/14 13:01:34;;;;;;;12.15;4.70;;;5.80;96.10;;;;;;5059079;28;20590;-85
2022/12/14 13:04:05;;;;;;;11.82;5.32;;;5.90;94.40;;;;;;5060688;28;20056;-85
2022/12/14 13:06:40;;;;;;;12.05;5.47;;;5.90;94.50;;;;;;5058980;28;20085;-85
2022/12/14 13:09:32;;;;;;;10.75;5.45;;;6.10;95.40;;;;;;5058992;28;20036;-85
2022/12/14 13:12:01;;;;;;;11.30;5.47;;;6.20;96.70;;;;;;5062715;28;20048;-85
2022/12/14 13:14:44;;;;;;;11.95;6.32;;;6.90;95.10;;;;;;5056170;28;20106;-85
2022/12/14 13:17:24;;;;;;;10.85;5.05;;;6.60;93.90;;;;;;5055597;28;20041;-85
2022/12/14 13:19:51;;;;;;;12.10;5.90;;;6.40;93.70;;;;;;5055455;28;20037;-85
2022/12/14 13:22:23;;;;;;;9.63;4.97;;;7.50;96.50;;;;;;5039237;28;20037;-85
2022/12/14 13:24:51;;;;;;;12.05;5.53;;;6.60;95.20;;;;;;5050532;28;20093;-88
2022/12/14 13:27:20;;;;;;;13.25;6.10;;;7.00;94.90;;;;;;5075640;28;20047;-88
2022/12/14 13:30:01;;;;;;;11.80;6.50;;;6.60;96.00;;;;;;5058609;28;20486;-87
2022/12/14 13:32:52;;;;;;;9.55;4.60;;;7.40;96.40;;;;;;5058583;28;20127;-87
2022/12/14 13:35:59;;;;;;;22.08;9.88;;;6.30;95.60;;;;;;5074620;28;20105;-87
2022/12/14 13:38:30;;;;;;;14.30;7.18;;;6.10;95.50;;;;;;5058388;28;20048;-88
2022/12/14 13:41:26;;;;;;;14.95;6.97;;;5.80;97.40;;;;;;5071495;28;20045;-86
2022/12/14 13:44:27;;;;;;;15.57;6.80;;;5.40;98.10;;;;;;5039369;28;20118;-87
2022/12/14 13:46:59;;;;;;;21.88;6.75;;;5.20;99.10;;;;;;5055519;28;20041;-86
2022/12/14 13:49:26;;;;;;;16.65;7.88;;;4.70;97.90;;;;;;5038806;28;20037;-86
2022/12/14 13:51:52;;;;;;;14.30;6.60;;;4.10;99.70;;;;;;5045807;28;20036;-86